• Join FlightAware (Why Join?)
  • Login
  • US Flag 
05:02AM EST


 

Airport Tracker/Info


-or-


 

Live Flight TrackerFlight Track Log ✈ EGF4247 ✈ 28-Apr-2013 ✈ KBUF - KORD

Flight Track Log - Related Links

Times and Time Zones

All times are in EDT time to prevent confusion due to time zone crossing. See the EGF4247 flight status page for this flight to view local times or setup timezone preferences in your user account.

Time Position Orientation Groundspeed Altitude Reporting Facility
EDT Latitude Longitude Course Direction KTS MPH feet Rate Location/Type
03:49PM 42.9333 -78.7500 270° West 146 168 1,500  Level Buffalo TRACON
03:51PM 42.9000 -78.8167 236° Southwest 211 243 3,800 1,920 Climbing Buffalo TRACON
03:52PM 42.9526 -79.0971 277° West  Level FlightAware Approximate
03:52PM 42.9000 -78.9000 270° West 276 318 5,600  Level Buffalo TRACON
03:52PM 42.9000 -78.9500 270° West 270 311 7,100 2,280 Climbing Toronto Center
03:53PM 42.9631 -79.2240 277° West  Level FlightAware Approximate
03:53PM 42.9000 -79.0667 270° West 280 322 9,400  Level Toronto Center
03:54PM 42.9667 -79.3515 270° West  Level FlightAware Approximate
03:54PM 42.9167 -79.1833 281° West 300 345 10,800  Level Toronto Center
03:55PM 42.9667 -79.4792 270° West  Level FlightAware Approximate
03:55PM 42.9167 -79.3000 270° West 330 380 12,200  Level Toronto Center
03:56PM 42.9333 -79.4333 280° West 340 391 13,900 1,560 Climbing Toronto Center
03:57PM 42.9333 -79.5667 270° West 350 403 15,400 1,500 Climbing Toronto Center
03:58PM 42.9500 -79.7000 280° West 350 403 17,000 1,500 Climbing Toronto Center
03:59PM 42.9500 -79.8333 270° West 360 414 18,400 1,500 Climbing Toronto Center
04:00PM 42.9667 -79.9667 280° West 360 414 20,000 1,440 Climbing Toronto Center
04:01PM 42.9667 -80.0833 270° West 370 426 21,300 1,500 Climbing Toronto Center
04:02PM 42.9833 -80.2500 278° West 370 426 23,000 1,500 Climbing Toronto Center
04:03PM 42.9833 -80.3833 270° West 370 426 24,400 1,380 Climbing Toronto Center
04:04PM 43.0000 -80.5167 280° West 370 426 25,800 780 Climbing Toronto Center
04:05PM 43.0000 -80.6833 270° West 380 437 26,000 60 Climbing Toronto Center
04:06PM 43.0000 -80.8167 270° West 410 472 26,000  Level Toronto Center
04:07PM 43.0167 -81.0000 277° West 430 495 26,000  Level Toronto Center
04:08PM 43.0167 -81.1667 270° West 440 506 26,000  Level Toronto Center
04:09PM 43.0167 -81.3500 270° West 450 518 26,000  Level Toronto Center
04:10PM 43.0167 -81.5000 270° West 450 518 26,000  Level Toronto Center
04:11PM 43.0167 -81.6833 270° West 460 529 26,000  Level Toronto Center
04:12PM 43.0167 -81.8667 270° West 460 529 26,000  Level Toronto Center
04:13PM 43.0000 -82.0333 262° West 450 518 26,000  Level Toronto Center
04:14PM 43.0000 -82.2167 270° West 450 518 26,000  Level Toronto Center
04:15PM 43.0000 -82.3667 270° West 450 518 26,000  Level Toronto Center
04:16PM 43.0000 -82.5500 270° West 450 518 26,000  Level Toronto Center
04:17PM 43.0011 -82.7122 271° West 459 528 26,000  Level Cleveland Center
04:18PM 42.9958 -82.8825 268° West 459 528 26,000  Level Cleveland Center
04:19PM 42.9903 -83.0553 268° West 459 528 26,000  Level Cleveland Center
04:20PM 42.9822 -83.2283 266° West 459 528 26,000  Level Cleveland Center
04:21PM 42.9781 -83.4011 268° West 459 528 26,000  Level Cleveland Center
04:22PM 42.9717 -83.5711 267° West 459 528 26,000  Level Cleveland Center
04:23PM 42.9653 -83.7356 267° West 454 522 26,000  Level Cleveland Center
04:24PM 42.9522 -83.9022 264° West 454 522 26,000  Level Cleveland Center
04:25PM 42.9328 -84.0714 261° West 449 517 26,000  Level Cleveland Center
04:27PM 42.8833 -84.4167 259° West 450 518 26,000  Level Toronto Center
04:28PM 42.8994 -84.4419 311° West 450 518 26,000  Level Chicago Center
04:29PM 42.8786 -84.6411 262° West 443 510 26,000  Level Chicago Center
04:30PM 42.8614 -84.8028 262° West 434 499 26,000  Level Chicago Center
04:31PM 42.8450 -84.9644 262° West 431 496 26,000  Level Chicago Center
04:32PM 42.8278 -85.1261 262° West 432 497 26,000 -360 Level Chicago Center
04:33PM 42.8103 -85.2844 261° West 426 490 25,300 -840 Descending Chicago Center
04:34PM 42.7942 -85.4306 262° West 397 457 24,300 -1,140 Descending Chicago Center
04:35PM 42.7678 -85.6053 258° West 388 447 23,000 -1,080 Descending Chicago Center
04:36PM 42.7419 -85.7447 256° West 386 444 22,100 -1,020 Descending Chicago Center
04:37PM 42.7161 -85.8858 256° West 384 442 21,000 -1,020 Descending Chicago Center
04:38PM 42.6903 -86.0253 256° West 379 436 20,100 -540 Descending Chicago Center
04:39PM 42.6647 -86.1694 256° West 386 444 20,000 -60 Descending Chicago Center
04:40PM 42.6361 -86.3194 256° West 402 463 20,000 -120 Level Chicago Center
04:41PM 42.6089 -86.4653 256° West 399 459 19,800 -1,560 Descending Chicago Center
04:42PM 42.5775 -86.6342 256° West 387 445 16,800 -2,820 Descending Chicago Center
04:43PM 42.5514 -86.7689 255° West 372 428 14,000 -2,520 Descending Chicago Center
04:44PM 42.5142 -86.8936 248° West 360 414 11,600 -1,800 Descending Chicago Center
04:45PM 42.4847 -87.0086 251° West 333 383 10,400 -1,140 Descending Chicago Center
04:46PM 42.4542 -87.1083 247° West 293 337 9,300 -720 Descending Chicago Center
04:47PM 42.4267 -87.2097 250° West 288 331 9,000 -180 Descending Chicago Center
04:48PM 42.3939 -87.3292 250° West 285 328 9,000  Level Chicago Center
04:49PM 42.3667 -87.4125 246° West 255 293 9,000 -420 Level Chicago Center
04:50PM 42.3406 -87.4936 246° West 240 276 8,200 -960 Descending Chicago Center
04:51PM 42.3017 -87.5622 233° Southwest 232 267 7,100 -600 Descending Chicago Center
04:52PM 42.2522 -87.6153 218° Southwest 229 264 7,000 -540 Descending Chicago Center
04:53PM 42.1947 -87.6800 220° Southwest 225 259 6,100 -1,260 Descending Chicago Center
04:54PM 42.1450 -87.7314 217° Southwest 224 258 4,500 -1,560 Descending Chicago Center